createdAt,value
2019-02-21T00:02:17.897Z,176.45
2019-02-21T00:07:14.384Z,178.07
2019-02-21T00:09:43.068Z,175.50
2019-02-21T00:12:11.709Z,173.80
2019-02-21T00:14:40.272Z,167.40
2019-02-21T00:17:08.857Z,178.07
2019-02-21T00:19:37.498Z,177.65
2019-02-21T00:22:06.154Z,180.32
2019-02-21T00:24:34.834Z,164.35
2019-02-21T00:27:03.424Z,155.35
2019-02-21T00:29:32.052Z,167.53
2019-02-21T00:32:00.702Z,168.28
2019-02-21T00:34:29.339Z,171.28
2019-02-21T00:36:57.923Z,172.62
2019-02-21T00:39:26.608Z,179.20
2019-02-21T00:41:55.243Z,181.63
2019-02-21T00:44:23.832Z,162.05
2019-02-21T00:46:52.530Z,170.70
2019-02-21T00:49:21.176Z,171.55
2019-02-21T00:51:49.763Z,167.80
2019-02-21T00:54:18.475Z,175.45
2019-02-21T00:56:47.059Z,168.47
2019-02-21T00:59:15.778Z,165.03
2019-02-21T01:01:44.479Z,163.57
2019-02-21T01:04:13.127Z,163.22
2019-02-21T01:06:41.773Z,171.60
2019-02-21T01:09:10.464Z,173.62
2019-02-21T01:11:39.118Z,166.07
2019-02-21T01:14:07.771Z,175.07
2019-02-21T01:16:36.484Z,171.30
2019-02-21T01:19:05.133Z,168.87
2019-02-21T01:21:33.779Z,165.50
2019-02-21T01:24:04.940Z,172.55
2019-02-21T01:26:32.805Z,164.75
2019-02-21T01:29:01.464Z,165.03
2019-02-21T01:31:30.167Z,167.20
2019-02-21T01:33:58.824Z,151.53
2019-02-21T01:36:27.479Z,160.37
2019-02-21T01:38:56.160Z,163.05
2019-02-21T01:41:24.813Z,159.45
2019-02-21T01:43:53.461Z,169.93
2019-02-21T01:46:22.162Z,166.95
2019-02-21T01:48:50.828Z,166.28
2019-02-21T01:51:19.480Z,162.88
2019-02-21T01:53:48.175Z,178.32
2019-02-21T01:56:16.827Z,168.78
2019-02-21T01:58:45.474Z,167.80
2019-02-21T02:01:14.167Z,158.97
2019-02-21T02:03:42.821Z,172.98
2019-02-21T02:06:11.468Z,168.93
2019-02-21T02:08:40.183Z,161.52
2019-02-21T02:11:08.835Z,166.85
2019-02-21T02:13:37.488Z,157.95
2019-02-21T02:16:06.190Z,163.28
2019-02-21T02:18:34.843Z,163.50
2019-02-21T02:21:03.477Z,157.30
2019-02-21T02:23:32.186Z,167.40
2019-02-21T02:26:00.829Z,161.18
2019-02-21T02:28:29.415Z,169.45
2019-02-21T02:30:58.119Z,165.77
2019-02-21T02:33:26.759Z,176.20
2019-02-21T02:35:55.410Z,166.30
2019-02-21T02:38:24.111Z,169.90
2019-02-21T02:40:52.763Z,170.60
2019-02-21T02:43:21.504Z,168.55
2019-02-21T02:45:50.219Z,171.25
2019-02-21T02:48:18.879Z,175.20
2019-02-21T02:50:47.526Z,157.67
2019-02-21T02:53:16.155Z,158.78
2019-02-21T02:55:44.800Z,176.68
2019-02-21T02:58:13.446Z,177.97
2019-02-21T03:00:42.159Z,174.60
2019-02-21T03:03:10.798Z,167.72
2019-02-21T03:05:39.488Z,172.93
2019-02-21T03:08:08.158Z,165.65
2019-02-21T03:10:36.805Z,162.85
2019-02-21T03:13:05.441Z,155.35
2019-02-21T03:15:34.135Z,165.57
2019-02-21T03:18:02.730Z,161.40
2019-02-21T03:20:31.387Z,171.00
2019-02-21T03:23:00.112Z,153.90
2019-02-21T03:25:28.780Z,157.03
2019-02-21T03:27:57.441Z,160.72
2019-02-21T03:30:26.174Z,166.47
2019-02-21T03:32:54.888Z,164.72
2019-02-21T03:35:23.548Z,158.93
2019-02-21T03:37:52.229Z,165.15
2019-02-21T03:40:20.888Z,163.20
2019-02-21T03:42:49.534Z,157.32
2019-02-21T03:45:18.246Z,154.90
2019-02-21T03:47:46.881Z,160.37
2019-02-21T03:50:15.460Z,151.95
2019-02-21T03:52:44.151Z,156.78
2019-02-21T03:55:12.822Z,152.55
2019-02-21T03:57:41.459Z,157.55
2019-02-21T04:00:11.915Z,160.60
2019-02-21T04:02:40.614Z,157.12
2019-02-21T04:05:09.276Z,154.95
2019-02-21T04:07:37.970Z,151.90
2019-02-21T04:10:08.718Z,159.78
2019-02-21T04:12:37.379Z,148.15
2019-02-21T04:15:08.682Z,150.95
2019-02-21T04:17:37.344Z,150.78
2019-02-21T04:20:07.197Z,151.05
2019-02-21T04:22:35.904Z,150.97
2019-02-21T04:25:05.751Z,151.70
2019-02-21T04:27:34.240Z,136.82
2019-02-21T04:30:02.962Z,140.25
2019-02-21T04:32:31.549Z,146.82
2019-02-21T04:35:00.327Z,152.02
2019-02-21T04:37:29.033Z,147.15
2019-02-21T04:39:57.686Z,153.62
2019-02-21T04:42:26.341Z,144.95
2019-02-21T04:44:55.144Z,147.20
2019-02-21T04:47:23.802Z,150.47
2019-02-21T04:49:52.464Z,149.75
2019-02-21T04:52:21.098Z,147.95
2019-02-21T04:54:49.724Z,144.85
2019-02-21T04:57:18.379Z,147.85
2019-02-21T04:59:47.080Z,157.20
2019-02-21T05:02:15.754Z,152.75
2019-02-21T05:04:44.408Z,147.17
2019-02-21T05:07:13.012Z,150.72
2019-02-21T05:09:41.676Z,153.55
2019-02-21T05:12:10.317Z,144.80
2019-02-21T05:14:38.988Z,151.12
2019-02-21T05:17:07.640Z,148.53
2019-02-21T05:19:36.295Z,146.35
2019-02-21T05:22:05.005Z,158.57
2019-02-21T05:24:33.645Z,154.80
2019-02-21T05:27:03.852Z,157.93
2019-02-21T05:29:32.587Z,154.12
2019-02-21T05:32:02.794Z,156.40
2019-02-21T05:34:38.826Z,154.38
2019-02-21T05:37:21.295Z,146.47
2019-02-21T05:40:07.562Z,154.68
2019-02-21T05:42:46.606Z,155.67
2019-02-21T05:45:19.652Z,160.12
2019-02-21T05:47:55.605Z,150.90
2019-02-21T05:50:31.307Z,146.95
2019-02-21T05:53:07.292Z,163.85
2019-02-21T05:55:37.558Z,154.40
2019-02-21T05:58:12.610Z,156.22
2019-02-21T06:00:48.051Z,142.53
2019-02-21T06:03:18.268Z,152.17
2019-02-21T06:05:48.499Z,145.43
2019-02-21T06:08:34.009Z,138.20
2019-02-21T06:11:06.991Z,147.47
2019-02-21T06:13:37.267Z,157.05
2019-02-21T06:16:07.472Z,147.72
2019-02-21T06:18:40.559Z,149.57
2019-02-21T06:21:26.874Z,146.70
2019-02-21T06:24:15.380Z,148.65
2019-02-21T06:26:48.594Z,145.70
2019-02-21T06:29:18.863Z,157.93
2019-02-21T06:31:47.518Z,151.47
2019-02-21T06:34:16.190Z,160.43
2019-02-21T06:36:44.824Z,161.10
2019-02-21T06:39:13.389Z,161.85
2019-02-21T06:41:42.792Z,171.40
2019-02-21T06:44:11.866Z,258.68
2019-02-21T06:46:40.523Z,232.03
2019-02-21T06:49:09.171Z,221.25
2019-02-21T06:51:37.796Z,245.55
2019-02-21T06:54:06.425Z,244.77
2019-02-21T06:56:34.941Z,189.28
2019-02-21T06:59:03.664Z,204.70
2019-02-21T07:01:32.223Z,235.50
2019-02-21T07:04:01.912Z,230.90
2019-02-21T07:06:32.181Z,389.48
2019-02-21T07:09:01.149Z,249.73
2019-02-21T07:11:29.828Z,248.78
2019-02-21T07:13:58.559Z,238.15
2019-02-21T07:16:27.114Z,218.90
2019-02-21T07:18:55.762Z,187.40
2019-02-21T07:21:24.485Z,249.50
2019-02-21T07:23:53.126Z,306.70
2019-02-21T07:26:21.774Z,224.92
2019-02-21T07:28:50.458Z,239.38
2019-02-21T07:31:28.200Z,248.35
2019-02-21T07:33:49.415Z,227.47
2019-02-21T07:36:18.119Z,218.73
2019-02-21T07:38:46.769Z,203.30
2019-02-21T07:41:18.453Z,213.30
2019-02-21T07:43:45.771Z,196.15
2019-02-21T07:46:14.356Z,227.45
2019-02-21T07:48:42.999Z,261.23
2019-02-21T07:51:13.467Z,236.28
2019-02-21T07:53:42.025Z,224.32
2019-02-21T07:56:10.667Z,217.80
2019-02-21T07:58:39.688Z,197.45
2019-02-21T08:01:08.437Z,227.87
2019-02-21T08:03:44.407Z,245.93
2019-02-21T08:06:07.442Z,211.68
2019-02-21T08:08:36.186Z,226.52
2019-02-21T08:11:07.036Z,215.90
2019-02-21T08:13:35.184Z,203.50
2019-02-21T08:16:03.848Z,215.80
2019-02-21T08:18:32.507Z,203.62
2019-02-21T08:21:01.131Z,228.90
2019-02-21T08:23:32.307Z,235.00
2019-02-21T08:26:00.080Z,228.40
2019-02-21T08:28:28.868Z,218.75
2019-02-21T08:30:58.254Z,223.38
2019-02-21T08:33:28.740Z,220.17
2019-02-21T08:35:57.981Z,208.60
2019-02-21T08:38:26.987Z,218.78
2019-02-21T08:40:57.200Z,228.42
2019-02-21T08:43:26.004Z,217.40
2019-02-21T08:45:57.385Z,213.85
2019-02-21T08:48:24.866Z,197.07
2019-02-21T08:50:55.022Z,220.48
2019-02-21T08:53:23.694Z,198.05
2019-02-21T08:55:52.267Z,193.22
2019-02-21T08:58:21.995Z,195.68
2019-02-21T09:00:50.638Z,191.10
2019-02-21T09:03:19.297Z,204.47
2019-02-21T09:05:47.914Z,190.05
2019-02-21T09:10:22.831Z,178.18
2019-02-21T09:12:51.525Z,200.53
2019-02-21T09:15:20.144Z,184.07
2019-02-21T09:17:48.796Z,184.70
2019-02-21T09:20:17.515Z,176.35
2019-02-21T09:22:46.090Z,176.57
2019-02-21T09:25:14.851Z,189.10
2019-02-21T09:27:43.564Z,176.68
2019-02-21T09:30:17.066Z,167.70
2019-02-21T09:32:45.740Z,174.75
2019-02-21T09:35:14.410Z,176.50
2019-02-21T09:37:43.054Z,179.72
2019-02-21T09:40:13.706Z,180.18
2019-02-21T09:42:42.401Z,185.07
2019-02-21T09:45:16.252Z,170.22
2019-02-21T09:47:44.884Z,169.80
2019-02-21T09:50:13.570Z,171.50
2019-02-21T09:52:42.225Z,173.53
2019-02-21T09:55:13.482Z,172.85
2019-02-21T09:57:42.111Z,154.77
2019-02-21T10:00:19.830Z,170.77
2019-02-21T10:02:48.479Z,163.97
2019-02-21T10:05:17.126Z,167.35
2019-02-21T10:07:45.712Z,161.22
2019-02-21T10:10:18.815Z,157.67
2019-02-21T10:12:47.443Z,168.13
2019-02-21T10:15:16.790Z,162.95
2019-02-21T10:17:45.490Z,161.10
2019-02-21T10:20:16.526Z,151.32
2019-02-21T10:22:45.180Z,163.70
2019-02-21T10:25:19.590Z,153.65
2019-02-21T10:27:48.199Z,151.07
2019-02-21T10:30:19.073Z,151.82
2019-02-21T10:32:47.708Z,151.35
2019-02-21T10:35:16.352Z,149.47
2019-02-21T10:37:45.015Z,149.25
2019-02-21T10:40:17.491Z,152.45
2019-02-21T10:42:46.164Z,149.42
2019-02-21T10:45:17.357Z,154.07
2019-02-21T10:47:46.066Z,141.73
2019-02-21T10:50:19.230Z,148.78
2019-02-21T10:52:48.283Z,148.82
2019-02-21T10:55:17.572Z,141.65
2019-02-21T10:57:46.165Z,152.62
2019-02-21T11:00:29.747Z,147.50
2019-02-21T11:02:58.326Z,148.93
2019-02-21T11:05:26.920Z,138.57
2019-02-21T11:07:55.633Z,141.95
2019-02-21T11:10:27.159Z,142.98
2019-02-21T11:12:55.823Z,144.70
2019-02-21T11:15:25.812Z,141.32
2019-02-21T11:17:54.448Z,138.37
2019-02-21T11:20:23.097Z,133.78
2019-02-21T11:22:51.801Z,138.32
2019-02-21T11:25:20.390Z,135.90
2019-02-21T11:27:48.985Z,142.93
2019-02-21T11:30:21.591Z,144.32
2019-02-21T11:32:50.237Z,133.50
2019-02-21T11:35:18.886Z,145.10
2019-02-21T11:37:47.770Z,143.07
2019-02-21T11:40:17.557Z,150.32
2019-02-21T11:42:46.213Z,155.30
2019-02-21T11:45:17.082Z,156.55
2019-02-21T11:47:45.741Z,143.22
2019-02-21T11:50:18.441Z,150.95
2019-02-21T11:52:47.134Z,150.03
2019-02-21T11:55:21.645Z,155.05
2019-02-21T11:57:50.363Z,151.35
2019-02-21T12:00:29.716Z,156.57
2019-02-21T12:02:58.270Z,147.95
2019-02-21T12:05:33.569Z,157.78
2019-02-21T12:07:57.144Z,153.32
2019-02-21T12:10:25.839Z,157.10
2019-02-21T12:12:54.491Z,156.55
2019-02-21T12:15:23.141Z,159.72
2019-02-21T12:17:51.789Z,156.52
2019-02-21T12:20:20.844Z,154.97
2019-02-21T12:22:49.494Z,159.12
2019-02-21T12:25:20.303Z,154.60
2019-02-21T12:27:48.889Z,155.78
2019-02-21T12:30:18.835Z,153.85
2019-02-21T12:32:47.539Z,149.85
2019-02-21T12:35:16.118Z,160.43
2019-02-21T12:37:44.781Z,160.97
2019-02-21T12:40:22.242Z,163.55
2019-02-21T12:42:50.814Z,154.82
2019-02-21T12:45:24.466Z,162.00
2019-02-21T12:47:54.071Z,165.00
2019-02-21T12:50:23.066Z,160.25
2019-02-21T12:52:51.660Z,165.25
2019-02-21T12:55:27.988Z,163.03
2019-02-21T12:57:51.957Z,156.67
2019-02-21T13:00:23.726Z,163.32
2019-02-21T13:02:52.416Z,153.97
2019-02-21T13:05:21.076Z,157.03
2019-02-21T13:07:49.742Z,162.07
2019-02-21T13:10:23.361Z,152.27
2019-02-21T13:12:52.020Z,152.53
2019-02-21T13:15:20.677Z,133.03
2019-02-21T13:17:51.110Z,150.12
2019-02-21T13:20:19.539Z,139.10
2019-02-21T13:22:48.200Z,135.35
2019-02-21T13:25:18.601Z,148.05
2019-02-21T13:27:47.263Z,143.70
2019-02-21T13:30:17.116Z,145.77
2019-02-21T13:32:45.743Z,145.77
2019-02-21T13:35:14.398Z,138.85
2019-02-21T13:37:43.043Z,144.13
2019-02-21T13:40:16.239Z,142.20
2019-02-21T13:42:44.932Z,136.15
2019-02-21T13:45:17.163Z,139.45
2019-02-21T13:47:45.173Z,121.95
2019-02-21T13:50:16.474Z,121.70
2019-02-21T13:52:45.058Z,124.83
2019-02-21T13:55:13.770Z,112.28
2019-02-21T13:57:42.362Z,115.62
2019-02-21T14:00:19.266Z,119.15
2019-02-21T14:02:47.832Z,125.55
2019-02-21T14:05:16.474Z,132.75
2019-02-21T14:07:45.185Z,135.95
2019-02-21T14:10:14.531Z,121.95
2019-02-21T14:12:43.203Z,118.25
2019-02-21T14:15:17.914Z,120.17
2019-02-21T14:17:46.827Z,120.72
2019-02-21T14:20:15.646Z,114.72
2019-02-21T14:22:44.355Z,119.05
2019-02-21T14:25:13.006Z,127.80
2019-02-21T14:27:43.240Z,127.80
2019-02-21T14:30:19.374Z,116.12
2019-02-21T14:32:47.954Z,122.92
2019-02-21T14:35:16.619Z,124.87
2019-02-21T14:37:45.297Z,119.15
2019-02-21T14:40:15.651Z,123.60
2019-02-21T14:42:44.303Z,120.35
2019-02-21T14:45:24.137Z,119.30
2019-02-21T14:47:52.786Z,119.57
2019-02-21T14:50:21.370Z,115.88
2019-02-21T14:52:50.073Z,109.95
2019-02-21T14:55:18.718Z,115.52
2019-02-21T14:57:47.382Z,117.37
2019-02-21T15:00:21.797Z,114.57
2019-02-21T15:02:50.444Z,114.72
2019-02-21T15:05:19.490Z,113.50
2019-02-21T15:07:48.334Z,115.10
2019-02-21T15:10:16.941Z,117.65
2019-02-21T15:12:45.605Z,112.72
2019-02-21T15:15:22.799Z,119.22
2019-02-21T15:17:51.439Z,120.95
2019-02-21T15:20:20.097Z,105.78
2019-02-21T15:22:48.792Z,108.12
2019-02-21T15:25:17.461Z,119.33
2019-02-21T15:27:46.137Z,112.62
2019-02-21T15:30:21.942Z,108.32
2019-02-21T15:32:50.514Z,109.70
2019-02-21T15:35:19.737Z,110.15
2019-02-21T15:37:48.679Z,105.05
2019-02-21T15:40:17.244Z,101.05
2019-02-21T15:42:45.899Z,110.50
2019-02-21T15:45:22.897Z,110.55
2019-02-21T15:47:47.891Z,108.42
2019-02-21T15:50:19.557Z,114.35
2019-02-21T15:52:47.446Z,108.85
2019-02-21T15:55:20.759Z,102.65
2019-02-21T15:57:49.407Z,107.60
2019-02-21T16:00:22.755Z,106.17
2019-02-21T16:02:51.406Z,102.10
2019-02-21T16:05:20.071Z,106.87
2019-02-21T16:07:48.771Z,95.72
2019-02-21T16:10:24.901Z,104.75
2019-02-21T16:12:53.578Z,112.40
2019-02-21T16:15:22.331Z,99.77
2019-02-21T16:17:50.854Z,104.78
2019-02-21T16:20:20.899Z,88.95
2019-02-21T16:22:49.534Z,93.75
2019-02-21T16:25:29.314Z,98.42
2019-02-21T16:27:57.970Z,94.92
2019-02-21T16:30:26.608Z,96.78
2019-02-21T16:32:55.289Z,96.85
2019-02-21T16:35:23.878Z,80.05
2019-02-21T16:37:52.481Z,85.53
2019-02-21T16:40:21.173Z,83.87
2019-02-21T16:42:49.818Z,98.72
2019-02-21T16:45:19.966Z,94.45
2019-02-21T16:47:48.677Z,94.95
2019-02-21T16:50:28.829Z,104.40
2019-02-21T16:52:47.536Z,100.10
2019-02-21T16:55:21.824Z,107.80
2019-02-21T16:57:50.483Z,96.20
2019-02-21T17:00:20.341Z,105.22
2019-02-21T17:02:49.050Z,109.32
2019-02-21T17:05:17.628Z,110.42
2019-02-21T17:07:46.269Z,103.70
2019-02-21T17:10:16.390Z,101.40
2019-02-21T17:12:45.035Z,102.15
2019-02-21T17:15:14.890Z,106.43
2019-02-21T17:17:43.571Z,119.75
2019-02-21T17:20:14.436Z,120.70
2019-02-21T17:22:43.082Z,101.33
2019-02-21T17:25:13.986Z,115.70
2019-02-21T17:27:42.645Z,121.97
2019-02-21T17:30:18.398Z,123.53
2019-02-21T17:32:46.995Z,120.33
2019-02-21T17:35:15.658Z,112.83
2019-02-21T17:37:44.344Z,110.85
2019-02-21T17:40:23.539Z,113.68
2019-02-21T17:42:52.252Z,122.05
2019-02-21T17:45:20.893Z,120.77
2019-02-21T17:47:49.552Z,136.97
2019-02-21T17:50:19.255Z,131.97
2019-02-21T17:52:47.918Z,128.62
2019-02-21T17:55:17.280Z,135.25
2019-02-21T17:57:45.990Z,135.35
2019-02-21T18:00:28.107Z,135.45
2019-02-21T18:02:56.881Z,140.95
2019-02-21T18:05:25.515Z,134.10
2019-02-21T18:07:54.176Z,139.90
2019-02-21T18:10:22.874Z,144.82
2019-02-21T18:12:51.524Z,139.75
2019-02-21T18:15:20.216Z,142.80
2019-02-21T18:17:49.014Z,137.52
2019-02-21T18:20:17.668Z,139.28
2019-02-21T18:22:46.304Z,136.65
2019-02-21T18:25:18.134Z,141.90
2019-02-21T18:27:46.882Z,138.82
2019-02-21T18:30:18.208Z,139.22
2019-02-21T18:32:46.928Z,144.82
2019-02-21T18:35:15.578Z,142.77
2019-02-21T18:37:47.605Z,141.57
2019-02-21T18:40:34.065Z,150.40
2019-02-21T18:43:05.672Z,146.13
2019-02-21T18:45:34.408Z,148.05
2019-02-21T18:48:03.106Z,139.97
2019-02-21T18:50:38.283Z,149.00
2019-02-21T18:53:02.041Z,145.02
2019-02-21T18:55:30.725Z,144.32
2019-02-21T18:58:00.951Z,142.93
2019-02-21T19:00:29.692Z,146.28
2019-02-21T19:02:58.408Z,139.62
2019-02-21T19:05:35.253Z,136.70
2019-02-21T19:08:04.751Z,137.77
2019-02-21T19:10:27.800Z,142.18
2019-02-21T19:12:56.462Z,135.10
2019-02-21T19:15:26.664Z,137.22
2019-02-21T19:17:55.463Z,139.40
2019-02-21T19:20:24.222Z,141.50
2019-02-21T19:22:52.864Z,136.45
2019-02-21T19:25:21.577Z,144.77
2019-02-21T19:27:50.220Z,133.52
2019-02-21T19:30:28.136Z,152.22
2019-02-21T19:32:56.868Z,149.38
2019-02-21T19:35:27.088Z,146.65
2019-02-21T19:37:55.782Z,144.32
2019-02-21T19:40:24.531Z,133.07
2019-02-21T19:42:55.727Z,144.70
2019-02-21T19:45:24.489Z,138.70
2019-02-21T19:47:53.137Z,134.90
2019-02-21T19:50:21.782Z,137.60
2019-02-21T19:52:50.476Z,139.50
2019-02-21T19:55:19.119Z,137.50
2019-02-21T19:57:47.872Z,138.43
2019-02-21T20:00:21.000Z,131.95
2019-02-21T20:02:49.660Z,134.87
2019-02-21T20:05:18.307Z,134.95
2019-02-21T20:07:47.009Z,136.15
2019-02-21T20:10:15.650Z,140.03
2019-02-21T20:12:44.288Z,137.75
2019-02-21T20:15:13.004Z,135.37
2019-02-21T20:17:41.669Z,141.25
2019-02-21T20:20:22.165Z,137.68
2019-02-21T20:22:50.815Z,136.12
2019-02-21T20:25:19.465Z,132.80
2019-02-21T20:27:48.162Z,134.60
2019-02-21T20:30:18.412Z,140.77
2019-02-21T20:32:49.873Z,129.60
2019-02-21T20:35:18.572Z,136.40
2019-02-21T20:37:47.228Z,137.03
2019-02-21T20:40:15.974Z,133.15
2019-02-21T20:42:44.677Z,139.68
2019-02-21T20:45:14.821Z,136.30
2019-02-21T20:47:43.461Z,132.30
2019-02-21T20:50:12.970Z,139.25
2019-02-21T20:52:41.614Z,126.92
2019-02-21T20:55:11.392Z,133.12
2019-02-21T20:57:40.081Z,125.35
2019-02-21T21:00:19.195Z,128.82
2019-02-21T21:02:48.031Z,126.78
2019-02-21T21:05:16.899Z,124.07
2019-02-21T21:07:45.542Z,134.85
2019-02-21T21:10:15.856Z,125.45
2019-02-21T21:12:44.486Z,123.65
2019-02-21T21:15:14.640Z,119.42
2019-02-21T21:17:43.373Z,120.17
2019-02-21T21:20:17.036Z,120.50
2019-02-21T21:25:17.081Z,124.95
2019-02-21T21:27:45.736Z,117.77
2019-02-21T21:30:15.972Z,119.77
2019-02-21T21:32:44.671Z,120.50
2019-02-21T21:35:13.317Z,124.15
2019-02-21T21:37:41.971Z,120.35
2019-02-21T21:40:13.175Z,128.32
2019-02-21T21:42:41.826Z,125.00
2019-02-21T21:45:13.276Z,128.25
2019-02-21T21:47:42.027Z,120.62
2019-02-21T21:50:16.210Z,122.65
2019-02-21T21:52:44.898Z,128.27
2019-02-21T21:55:13.596Z,122.15
2019-02-21T21:57:42.272Z,123.82
2019-02-21T22:00:13.381Z,127.60
2019-02-21T22:02:42.074Z,123.97
2019-02-21T22:05:10.727Z,116.90
2019-02-21T22:07:39.374Z,121.15
2019-02-21T22:10:10.633Z,122.10
2019-02-21T22:12:39.292Z,116.60
2019-02-21T22:15:19.346Z,121.67
2019-02-21T22:17:47.935Z,122.22
2019-02-21T22:20:16.602Z,130.82
2019-02-21T22:22:45.297Z,134.70
2019-02-21T22:25:14.425Z,130.50
2019-02-21T22:27:43.074Z,137.95
2019-02-21T22:30:17.620Z,132.32
2019-02-21T22:32:46.272Z,126.07
2019-02-21T22:35:14.906Z,123.25
2019-02-21T22:37:43.611Z,134.07
2019-02-21T22:40:15.107Z,130.40
2019-02-21T22:42:43.748Z,124.40
2019-02-21T22:45:12.491Z,125.60
2019-02-21T22:47:41.138Z,135.45
2019-02-21T22:50:15.685Z,125.67
2019-02-21T22:52:44.369Z,119.08
2019-02-21T22:55:13.008Z,127.70
2019-02-21T22:57:41.651Z,137.55
2019-02-21T23:00:48.131Z,136.88
2019-02-21T23:03:17.604Z,119.17
2019-02-21T23:06:01.815Z,134.55
2019-02-21T23:08:45.274Z,126.75
2019-02-21T23:11:13.977Z,131.43
2019-02-21T23:13:42.611Z,129.07
2019-02-21T23:16:11.289Z,130.43
2019-02-21T23:18:40.000Z,128.72
2019-02-21T23:21:08.686Z,130.90
2019-02-21T23:23:37.719Z,127.50
2019-02-21T23:26:06.440Z,131.07
2019-02-21T23:28:35.024Z,126.53
2019-02-21T23:31:03.668Z,127.25
2019-02-21T23:33:33.896Z,123.92
2019-02-21T23:36:02.547Z,123.47
2019-02-21T23:38:31.194Z,125.60
2019-02-21T23:40:59.903Z,128.05
2019-02-21T23:43:28.560Z,124.25
2019-02-21T23:45:57.211Z,124.22
2019-02-21T23:48:25.906Z,130.27
2019-02-21T23:50:54.566Z,133.20
2019-02-21T23:53:23.199Z,121.90
2019-02-21T23:55:51.902Z,127.75
2019-02-21T23:58:20.554Z,128.05
